createdAt,value
2022-10-13T00:00:31.081Z,5.50
2022-10-13T00:03:18.366Z,5.40
2022-10-13T00:05:48.373Z,5.40
2022-10-13T00:08:19.343Z,5.40
2022-10-13T00:10:48.386Z,5.30
2022-10-13T00:13:15.453Z,5.20
2022-10-13T00:15:45.685Z,5.20
2022-10-13T00:18:14.898Z,5.10
2022-10-13T00:20:47.561Z,5.20
2022-10-13T00:23:15.899Z,5.10
2022-10-13T00:25:44.341Z,5.10
2022-10-13T00:28:11.948Z,5.10
2022-10-13T00:30:40.021Z,5.00
2022-10-13T00:33:08.033Z,5.00
2022-10-13T00:35:39.927Z,5.00
2022-10-13T00:38:07.010Z,4.90
2022-10-13T00:40:34.074Z,4.90
2022-10-13T00:43:01.061Z,4.90
2022-10-13T00:45:29.678Z,4.90
2022-10-13T00:48:02.133Z,4.90
2022-10-13T00:50:35.546Z,4.90
2022-10-13T00:53:04.194Z,4.80
2022-10-13T00:55:35.249Z,4.90
2022-10-13T00:58:05.717Z,4.90
2022-10-13T01:00:34.119Z,4.90
2022-10-13T01:03:01.966Z,4.90
2022-10-13T01:05:30.292Z,4.80
2022-10-13T01:07:58.416Z,4.80
2022-10-13T01:10:46.557Z,4.70
2022-10-13T01:13:25.931Z,4.60
2022-10-13T01:16:04.691Z,4.50
2022-10-13T01:18:44.418Z,4.50
2022-10-13T01:21:38.208Z,4.50
2022-10-13T01:24:20.336Z,4.50
2022-10-13T01:26:59.162Z,4.50
2022-10-13T01:29:47.139Z,4.60
2022-10-13T01:32:40.254Z,4.50
2022-10-13T01:35:48.917Z,4.50
2022-10-13T01:38:37.222Z,4.30
2022-10-13T01:41:23.649Z,4.20
2022-10-13T01:44:23.415Z,4.20
2022-10-13T01:46:52.253Z,4.10
2022-10-13T01:49:22.346Z,4.00
2022-10-13T01:51:50.305Z,3.90
2022-10-13T01:54:18.753Z,3.90
2022-10-13T01:56:56.246Z,3.80
2022-10-13T01:59:25.592Z,3.80
2022-10-13T02:02:03.011Z,3.80
2022-10-13T02:04:59.857Z,3.90
2022-10-13T02:07:35.229Z,3.90
2022-10-13T02:10:08.341Z,4.00
2022-10-13T02:12:48.700Z,3.90
2022-10-13T02:15:21.364Z,3.90
2022-10-13T02:17:48.485Z,3.90
2022-10-13T02:20:17.133Z,4.00
2022-10-13T02:22:47.088Z,3.90
2022-10-13T02:25:14.092Z,3.90
2022-10-13T02:27:41.517Z,3.80
2022-10-13T02:30:09.403Z,3.80
2022-10-13T02:32:36.377Z,3.80
2022-10-13T02:35:03.458Z,3.90
2022-10-13T02:37:30.563Z,3.90
2022-10-13T02:39:57.510Z,3.90
2022-10-13T02:42:24.380Z,3.80
2022-10-13T02:44:51.438Z,3.70
2022-10-13T02:47:18.379Z,3.60
2022-10-13T02:49:45.362Z,3.60
2022-10-13T02:52:12.639Z,3.60
2022-10-13T02:54:39.579Z,3.60
2022-10-13T02:57:06.443Z,3.60
2022-10-13T02:59:33.700Z,3.60
2022-10-13T03:02:00.585Z,3.60
2022-10-13T03:04:27.506Z,3.60
2022-10-13T03:06:54.557Z,3.60
2022-10-13T03:09:21.623Z,3.60
2022-10-13T03:11:48.649Z,3.60
2022-10-13T03:14:15.750Z,3.50
2022-10-13T03:16:42.676Z,3.50
2022-10-13T03:19:09.743Z,3.50
2022-10-13T03:21:38.592Z,3.60
2022-10-13T03:24:05.877Z,3.60
2022-10-13T03:26:35.044Z,3.50
2022-10-13T03:29:03.295Z,3.60
2022-10-13T03:31:32.526Z,3.50
2022-10-13T03:33:59.474Z,3.50
2022-10-13T03:36:27.098Z,3.50
2022-10-13T03:38:54.020Z,3.50
2022-10-13T03:41:21.127Z,3.40
2022-10-13T03:43:48.411Z,3.40
2022-10-13T03:46:41.731Z,3.50
2022-10-13T03:49:11.336Z,3.50
2022-10-13T03:51:38.847Z,3.50
2022-10-13T03:54:05.994Z,3.40
2022-10-13T03:56:33.317Z,3.40
2022-10-13T03:59:01.078Z,3.40
2022-10-13T04:01:29.960Z,3.50
2022-10-13T04:04:05.925Z,3.40
2022-10-13T04:06:36.486Z,3.40
2022-10-13T04:09:04.133Z,3.40
2022-10-13T04:11:31.202Z,3.30
2022-10-13T04:13:58.808Z,3.30
2022-10-13T04:16:29.078Z,3.30
2022-10-13T04:19:01.914Z,3.30
2022-10-13T04:21:44.091Z,3.30
2022-10-13T04:24:30.185Z,3.20
2022-10-13T04:26:57.315Z,3.20
2022-10-13T04:29:24.289Z,3.20
2022-10-13T04:31:51.210Z,3.20
2022-10-13T04:34:18.384Z,3.30
2022-10-13T04:36:45.415Z,3.30
2022-10-13T04:39:12.292Z,3.40
2022-10-13T04:41:48.665Z,3.40
2022-10-13T04:44:19.514Z,3.40
2022-10-13T04:46:46.671Z,3.40
2022-10-13T04:49:15.310Z,3.40
2022-10-13T04:51:42.415Z,3.30
2022-10-13T04:54:10.109Z,3.30
2022-10-13T04:56:37.127Z,3.20
2022-10-13T04:59:52.873Z,3.30
2022-10-13T05:02:34.474Z,3.30
2022-10-13T05:05:01.549Z,3.30
2022-10-13T05:07:28.722Z,3.30
2022-10-13T05:09:55.597Z,3.40
2022-10-13T05:12:22.863Z,3.40
2022-10-13T05:14:50.201Z,3.40
2022-10-13T05:17:25.509Z,3.50
2022-10-13T05:20:01.399Z,3.50
2022-10-13T05:22:28.839Z,3.50
2022-10-13T05:24:56.090Z,3.50
2022-10-13T05:27:23.274Z,3.60
2022-10-13T05:29:50.254Z,3.70
2022-10-13T05:32:17.576Z,3.70
2022-10-13T05:34:58.814Z,3.80
2022-10-13T05:37:57.215Z,3.80
2022-10-13T05:40:24.390Z,3.90
2022-10-13T05:42:52.467Z,4.00
2022-10-13T05:45:21.177Z,4.00
2022-10-13T05:47:50.014Z,4.10
2022-10-13T05:50:17.154Z,4.10
2022-10-13T05:52:45.128Z,4.20
2022-10-13T05:55:24.368Z,4.30
2022-10-13T05:58:26.220Z,4.40
2022-10-13T06:00:55.136Z,4.50
2022-10-13T06:03:23.741Z,4.70
2022-10-13T06:05:50.814Z,4.90
2022-10-13T06:08:18.131Z,5.00
2022-10-13T06:10:45.662Z,5.30
2022-10-13T06:13:29.916Z,5.40
2022-10-13T06:15:58.573Z,5.60
2022-10-13T06:18:31.058Z,5.90
2022-10-13T06:20:58.172Z,6.10
2022-10-13T06:23:25.168Z,6.30
2022-10-13T06:25:53.772Z,6.40
2022-10-13T06:28:21.906Z,6.70
2022-10-13T06:34:39.830Z,6.90
2022-10-13T06:37:07.117Z,7.10
2022-10-13T06:39:34.315Z,7.30
2022-10-13T06:42:01.552Z,7.50
2022-10-13T06:44:28.817Z,7.60
2022-10-13T06:46:55.770Z,7.80
2022-10-13T06:49:32.537Z,7.90
2022-10-13T06:52:00.521Z,8.10
2022-10-13T06:54:27.709Z,8.20
2022-10-13T06:56:54.742Z,8.40
2022-10-13T06:59:22.122Z,8.60
2022-10-13T07:01:50.450Z,8.90
2022-10-13T07:04:17.654Z,9.10
2022-10-13T07:06:44.695Z,9.30
2022-10-13T07:09:13.189Z,9.40
2022-10-13T07:11:40.340Z,9.50
2022-10-13T07:14:07.816Z,9.50
2022-10-13T07:16:34.942Z,9.60
2022-10-13T07:19:02.141Z,9.70
2022-10-13T07:22:19.066Z,9.80
2022-10-13T07:24:46.517Z,10.00
2022-10-13T07:27:13.702Z,10.10
2022-10-13T07:29:40.743Z,10.30
2022-10-13T07:32:07.822Z,10.40
2022-10-13T07:34:35.051Z,10.70
2022-10-13T07:37:02.061Z,10.80
2022-10-13T07:46:39.869Z,11.30
2022-10-13T07:49:16.252Z,11.50
2022-10-13T07:51:44.062Z,11.50
2022-10-13T07:54:11.334Z,11.60
2022-10-13T07:56:38.565Z,11.70
2022-10-13T07:59:05.778Z,11.80
2022-10-13T08:01:32.796Z,12.00
2022-10-13T08:07:58.453Z,12.30
2022-10-13T08:10:28.847Z,12.40
2022-10-13T08:12:56.337Z,12.60
2022-10-13T08:15:40.703Z,12.60
2022-10-13T09:58:40.443Z,16.70
2022-10-13T10:01:18.266Z,16.80
2022-10-13T10:03:46.422Z,16.80
2022-10-13T10:06:16.358Z,16.90
2022-10-13T10:09:03.418Z,17.20
2022-10-13T10:11:39.719Z,17.30
2022-10-13T10:14:30.941Z,17.20
2022-10-13T10:17:22.801Z,17.30
2022-10-13T10:20:09.123Z,17.40
2022-10-13T10:22:46.050Z,17.30
2022-10-13T10:25:21.891Z,17.10
2022-10-13T10:28:02.548Z,17.20
2022-10-13T10:30:31.164Z,17.30
2022-10-13T10:32:58.318Z,17.30
2022-10-13T10:35:37.309Z,17.30
2022-10-13T10:38:30.543Z,17.00
2022-10-13T10:41:05.266Z,17.00
2022-10-13T10:43:43.399Z,17.00
2022-10-13T10:46:24.749Z,17.00
2022-10-13T10:49:03.167Z,17.10
2022-10-13T10:51:36.719Z,17.20
2022-10-13T10:54:49.349Z,17.70
2022-10-13T10:57:19.871Z,18.00
2022-10-13T10:59:59.503Z,17.80
2022-10-13T11:02:50.550Z,17.70
2022-10-13T11:05:17.997Z,17.60
2022-10-13T11:07:47.826Z,17.70
2022-10-13T11:10:16.466Z,17.50
2022-10-13T11:12:53.024Z,17.60
2022-10-13T11:15:31.188Z,17.50
2022-10-13T11:17:58.430Z,17.50
2022-10-13T11:20:34.218Z,17.60
2022-10-13T11:23:04.727Z,17.60
2022-10-13T11:25:39.786Z,17.40
2022-10-13T11:28:42.762Z,17.50
2022-10-13T11:31:15.338Z,17.50
2022-10-13T11:33:44.532Z,17.70
2022-10-13T11:36:48.406Z,17.90
2022-10-13T11:39:27.917Z,17.80
2022-10-13T11:41:57.560Z,17.70
2022-10-13T11:44:39.179Z,17.70
2022-10-13T11:47:42.423Z,17.80
2022-10-13T11:50:40.527Z,17.90
2022-10-13T11:53:16.357Z,17.90
2022-10-13T11:56:01.951Z,18.10
2022-10-13T11:58:31.159Z,18.00
2022-10-13T12:01:03.177Z,18.00
2022-10-13T12:03:38.033Z,18.00
2022-10-13T12:06:16.854Z,18.00
2022-10-13T12:08:48.270Z,18.10
2022-10-13T12:11:27.719Z,18.10
2022-10-13T12:13:55.609Z,18.00
2022-10-13T12:16:23.272Z,17.90
2022-10-13T12:18:51.054Z,17.90
2022-10-13T12:21:22.850Z,17.90
2022-10-13T12:23:52.505Z,17.70
2022-10-13T12:26:24.396Z,17.80
2022-10-13T12:28:56.227Z,17.60
2022-10-13T12:31:26.681Z,17.90
2022-10-13T12:33:59.558Z,17.90
2022-10-13T12:36:34.756Z,18.00
2022-10-13T12:39:07.809Z,18.00
2022-10-13T12:41:38.475Z,18.00
2022-10-13T12:44:07.901Z,18.10
2022-10-13T12:46:45.382Z,18.10
2022-10-13T12:49:30.384Z,17.90
2022-10-13T12:52:09.580Z,17.70
2022-10-13T12:54:39.493Z,17.90
2022-10-13T12:57:43.399Z,17.50
2022-10-13T13:00:19.689Z,17.10
2022-10-13T13:02:53.972Z,16.80
2022-10-13T13:05:31.223Z,17.00
2022-10-13T13:07:58.777Z,17.20
2022-10-13T13:10:26.276Z,17.20
2022-10-13T13:12:54.913Z,17.00
2022-10-13T13:15:24.594Z,16.90
2022-10-13T13:17:58.353Z,16.80
2022-10-13T13:20:34.742Z,16.80
2022-10-13T13:23:02.216Z,16.60
2022-10-13T13:25:29.201Z,16.40
2022-10-13T13:27:56.200Z,16.10
2022-10-13T13:30:24.667Z,15.90
2022-10-13T13:32:51.752Z,15.70
2022-10-13T13:35:19.151Z,15.60
2022-10-13T13:37:47.954Z,15.50
2022-10-13T13:40:26.476Z,15.50
2022-10-13T13:42:54.911Z,15.50
2022-10-13T13:45:24.782Z,15.40
2022-10-13T13:47:51.792Z,15.30
2022-10-13T13:50:36.589Z,15.30
2022-10-13T13:53:04.689Z,15.20
2022-10-13T13:55:32.644Z,15.10
2022-10-13T13:57:59.619Z,15.10
2022-10-13T14:00:26.923Z,15.10
2022-10-13T14:02:53.917Z,15.10
2022-10-13T14:05:21.094Z,15.10
2022-10-13T14:07:48.361Z,15.00
2022-10-13T14:10:15.618Z,15.10
2022-10-13T14:12:42.633Z,15.00
2022-10-13T14:15:10.373Z,14.90
2022-10-13T14:17:37.447Z,14.80
2022-10-13T14:20:04.875Z,14.80
2022-10-13T14:22:32.302Z,14.80
2022-10-13T14:24:59.291Z,14.70
2022-10-13T14:27:26.333Z,14.80
2022-10-13T14:29:53.531Z,14.80
2022-10-13T14:32:20.611Z,14.80
2022-10-13T14:34:47.700Z,14.70
2022-10-13T14:37:15.033Z,14.60
2022-10-13T14:39:41.979Z,14.60
2022-10-13T14:42:08.968Z,14.50
2022-10-13T14:44:36.190Z,14.50
2022-10-13T14:47:03.355Z,14.40
2022-10-13T14:49:30.384Z,14.30
2022-10-13T14:51:57.547Z,14.30
2022-10-13T14:54:25.303Z,14.30
2022-10-13T14:56:52.380Z,14.30
2022-10-13T14:59:19.707Z,14.20
2022-10-13T15:01:48.246Z,14.20
2022-10-13T15:04:15.408Z,14.20
2022-10-13T15:06:42.545Z,14.10
2022-10-13T15:09:10.364Z,14.00
2022-10-13T15:11:37.629Z,14.00
2022-10-13T15:14:04.951Z,13.90
2022-10-13T15:16:36.913Z,13.80
2022-10-13T15:19:04.729Z,13.70
2022-10-13T15:21:31.946Z,13.70
2022-10-13T15:23:59.058Z,13.60
2022-10-13T15:26:26.126Z,13.50
2022-10-13T15:28:53.836Z,13.40
2022-10-13T15:31:22.326Z,13.30
2022-10-13T15:33:52.068Z,13.10
2022-10-13T15:36:20.132Z,13.00
2022-10-13T15:38:47.172Z,12.90
2022-10-13T15:41:14.380Z,12.80
2022-10-13T15:43:41.875Z,12.70
2022-10-13T15:46:12.789Z,12.60
2022-10-13T15:48:40.233Z,12.60
2022-10-13T15:51:19.525Z,12.60
2022-10-13T15:53:50.071Z,12.50
2022-10-13T15:56:17.970Z,12.40
2022-10-13T15:58:45.658Z,12.30
2022-10-13T16:01:13.803Z,12.20
2022-10-13T16:03:41.658Z,12.10
2022-10-13T16:06:11.324Z,12.00
2022-10-13T16:08:39.927Z,12.00
2022-10-13T16:11:12.199Z,11.90
2022-10-13T16:13:40.819Z,11.80
2022-10-13T16:16:08.227Z,11.70
2022-10-13T16:18:37.293Z,11.70
2022-10-13T16:21:22.507Z,11.60
2022-10-13T16:23:50.031Z,11.50
2022-10-13T16:26:17.550Z,11.30
2022-10-13T16:28:45.928Z,11.00
2022-10-13T16:31:15.820Z,10.80
2022-10-13T16:33:44.350Z,10.70
2022-10-13T16:36:13.955Z,10.60
2022-10-13T16:38:41.888Z,10.50
2022-10-13T16:41:11.970Z,10.50
2022-10-13T16:43:39.181Z,10.40
2022-10-13T16:46:08.292Z,10.40
2022-10-13T16:48:35.463Z,10.40
2022-10-13T16:51:08.538Z,10.30
2022-10-13T16:53:36.310Z,10.00
2022-10-13T16:56:05.041Z,9.70
2022-10-13T16:58:32.628Z,9.40
2022-10-13T17:01:05.011Z,9.20
2022-10-13T17:03:32.395Z,9.00
2022-10-13T17:05:59.600Z,8.90
2022-10-13T17:08:26.854Z,8.80
2022-10-13T17:10:58.294Z,8.90
2022-10-13T17:13:25.742Z,8.90
2022-10-13T17:15:54.640Z,9.00
2022-10-13T17:18:22.484Z,8.90
2022-10-13T17:20:58.535Z,8.80
2022-10-13T17:23:26.212Z,8.70
2022-10-13T17:25:54.511Z,8.70
2022-10-13T17:28:22.427Z,8.60
2022-10-13T17:31:03.894Z,8.50
2022-10-13T17:33:34.533Z,8.50
2022-10-13T17:36:06.814Z,8.50
2022-10-13T17:38:35.139Z,8.50
2022-10-13T17:41:05.238Z,8.50
2022-10-13T17:43:34.546Z,8.50
2022-10-13T17:46:34.977Z,8.60
2022-10-13T17:49:00.784Z,8.70
2022-10-13T17:51:28.628Z,8.90
2022-10-13T17:53:57.994Z,9.00
2022-10-13T17:56:25.427Z,9.00
2022-10-13T17:58:52.742Z,9.00
2022-10-13T18:01:28.750Z,8.80
2022-10-13T18:04:01.251Z,8.60
2022-10-13T18:06:36.899Z,8.40
2022-10-13T18:09:13.891Z,8.10
2022-10-13T18:11:48.520Z,7.90
2022-10-13T18:14:22.004Z,7.80
2022-10-13T18:16:50.829Z,7.60
2022-10-13T18:19:18.063Z,7.50
2022-10-13T18:21:45.125Z,7.40
2022-10-13T18:24:12.798Z,7.40
2022-10-13T18:26:40.405Z,7.30
2022-10-13T18:29:09.253Z,7.30
2022-10-13T18:31:37.941Z,7.20
2022-10-13T18:34:08.604Z,7.10
2022-10-13T18:36:41.006Z,7.10
2022-10-13T18:39:15.396Z,7.10
2022-10-13T18:41:42.960Z,7.10
2022-10-13T18:44:10.300Z,7.20
2022-10-13T18:46:38.902Z,7.10
2022-10-13T18:49:08.566Z,7.10
2022-10-13T18:51:36.620Z,7.00
2022-10-13T18:54:05.278Z,6.90
2022-10-13T18:56:33.410Z,6.90
2022-10-13T18:59:01.891Z,6.90
2022-10-13T19:01:33.272Z,6.90
2022-10-13T19:04:00.504Z,7.00
2022-10-13T19:06:30.647Z,7.00
2022-10-13T19:09:03.951Z,7.00
2022-10-13T19:11:32.643Z,7.10
2022-10-13T19:14:00.647Z,7.20
2022-10-13T19:16:30.278Z,7.10
2022-10-13T19:18:57.465Z,7.10
2022-10-13T19:21:25.213Z,7.10
2022-10-13T19:23:52.547Z,7.10
2022-10-13T19:26:23.818Z,7.10
2022-10-13T19:29:01.797Z,7.10
2022-10-13T19:31:31.100Z,7.20
2022-10-13T19:34:01.163Z,7.20
2022-10-13T19:36:33.208Z,7.30
2022-10-13T19:39:02.267Z,7.10
2022-10-13T19:41:31.514Z,7.10
2022-10-13T19:43:59.630Z,7.00
2022-10-13T19:46:26.890Z,7.00
2022-10-13T19:48:54.127Z,6.90
2022-10-13T19:51:21.407Z,6.80
2022-10-13T19:53:48.401Z,6.70
2022-10-13T19:56:21.903Z,6.50
2022-10-13T19:58:49.093Z,6.50
2022-10-13T20:01:16.275Z,6.40
2022-10-13T20:03:43.326Z,6.30
2022-10-13T20:06:10.907Z,6.20
2022-10-13T20:08:37.992Z,6.10
2022-10-13T20:11:10.430Z,6.10
2022-10-13T20:13:37.745Z,6.10
2022-10-13T20:16:09.859Z,6.00
2022-10-13T20:18:37.658Z,5.90
2022-10-13T20:21:06.711Z,5.90
2022-10-13T20:23:34.668Z,5.90
2022-10-13T20:26:06.727Z,5.90
2022-10-13T20:28:39.204Z,5.90
2022-10-13T20:31:10.358Z,6.00
2022-10-13T20:33:37.616Z,6.10
2022-10-13T20:36:07.575Z,6.10
2022-10-13T20:38:38.224Z,6.10
2022-10-13T20:41:19.715Z,6.20
2022-10-13T20:43:48.102Z,6.20
2022-10-13T20:46:16.804Z,6.20
2022-10-13T20:51:31.395Z,6.20
2022-10-13T20:53:58.388Z,6.20
2022-10-13T20:56:26.430Z,6.10
2022-10-13T20:58:53.890Z,6.00
2022-10-13T21:01:22.472Z,6.00
2022-10-13T21:03:56.035Z,5.90
2022-10-13T21:06:24.711Z,5.90
2022-10-13T21:08:52.456Z,5.90
2022-10-13T21:11:21.573Z,5.80
2022-10-13T21:13:49.481Z,5.80
2022-10-13T21:16:24.074Z,5.70
2022-10-13T21:18:51.943Z,5.70
2022-10-13T21:21:22.971Z,5.60
2022-10-13T21:23:51.876Z,5.50
2022-10-13T21:26:21.959Z,5.50
2022-10-13T21:28:50.442Z,5.40
2022-10-13T21:31:19.699Z,5.40
2022-10-13T21:33:46.736Z,5.40
2022-10-13T21:36:19.779Z,5.30
2022-10-13T21:38:47.755Z,5.30
2022-10-13T21:41:15.430Z,5.20
2022-10-13T21:43:42.876Z,5.20
2022-10-13T21:46:20.449Z,5.10
2022-10-13T21:48:48.545Z,5.10
2022-10-13T21:51:21.856Z,5.10
2022-10-13T21:53:51.470Z,5.00
2022-10-13T21:56:19.220Z,5.00
2022-10-13T21:58:47.377Z,4.90
2022-10-13T22:01:15.911Z,4.90
2022-10-13T22:03:43.092Z,4.90
2022-10-13T22:06:18.787Z,4.80
2022-10-13T22:08:49.747Z,4.80
2022-10-13T22:11:18.098Z,4.80
2022-10-13T22:13:45.817Z,4.80
2022-10-13T22:16:19.945Z,4.80
2022-10-13T22:18:47.860Z,4.80
2022-10-13T22:21:19.426Z,4.80
2022-10-13T22:23:46.638Z,4.80
2022-10-13T22:26:14.747Z,4.80
2022-10-13T22:28:42.643Z,4.80
2022-10-13T22:31:12.485Z,4.80
2022-10-13T22:33:41.794Z,4.70
2022-10-13T22:36:17.282Z,4.70
2022-10-13T22:38:45.446Z,4.70
2022-10-13T22:41:14.702Z,4.60
2022-10-13T22:43:44.117Z,4.60
2022-10-13T22:46:12.858Z,4.60
2022-10-13T22:48:41.663Z,4.60
2022-10-13T22:51:09.447Z,4.60
2022-10-13T22:53:36.547Z,4.60
2022-10-13T22:56:15.591Z,4.60
2022-10-13T22:58:42.475Z,4.60
2022-10-13T23:01:12.665Z,4.60
2022-10-13T23:03:40.477Z,4.60
2022-10-13T23:06:12.334Z,4.60
2022-10-13T23:08:39.633Z,4.60
2022-10-13T23:11:06.583Z,4.60
2022-10-13T23:13:33.667Z,4.50
2022-10-13T23:16:09.194Z,4.50
2022-10-13T23:18:36.283Z,4.50
2022-10-13T23:21:08.143Z,4.50
2022-10-13T23:23:35.317Z,4.40
2022-10-13T23:26:08.021Z,4.40
2022-10-13T23:28:35.632Z,4.40
2022-10-13T23:31:04.104Z,4.50
2022-10-13T23:33:31.483Z,4.50
2022-10-13T23:36:00.839Z,4.50
2022-10-13T23:38:29.734Z,4.50
2022-10-13T23:41:06.379Z,4.50
2022-10-13T23:43:34.111Z,4.50
2022-10-13T23:46:01.086Z,4.40
2022-10-13T23:48:28.343Z,4.40
2022-10-13T23:50:56.108Z,4.40
2022-10-13T23:53:23.444Z,4.40
2022-10-13T23:55:50.480Z,4.40
2022-10-13T23:58:17.716Z,4.40
